createdAt,value
2022-11-05T00:01:15.155Z,99465.38
2022-11-05T00:04:00.478Z,99428.03
2022-11-05T00:06:48.226Z,99314.06
2022-11-05T00:09:30.432Z,99497.66
2022-11-05T00:12:17.665Z,99416.22
2022-11-05T00:15:02.903Z,99404.47
2022-11-05T00:17:29.652Z,99465.94
2022-11-05T00:19:56.366Z,99305.25
2022-11-05T00:22:41.779Z,99402.38
2022-11-05T00:25:14.200Z,99497.81
2022-11-05T00:27:44.327Z,99466.22
2022-11-05T00:30:12.449Z,99486.09
2022-11-05T00:32:39.364Z,99415.34
2022-11-05T00:35:09.179Z,99467.28
2022-11-05T00:37:36.136Z,99483.66
2022-11-05T00:40:05.960Z,99462.53
2022-11-05T00:42:53.750Z,99379.63
2022-11-05T00:45:22.573Z,99485.22
2022-11-05T00:48:07.743Z,99463.84
2022-11-05T00:50:34.414Z,99481.56
2022-11-05T00:53:01.612Z,99388.06
2022-11-05T00:55:29.634Z,99483.50
2022-11-05T00:57:57.738Z,99490.34
2022-11-05T01:00:26.549Z,99433.47
2022-11-05T01:02:53.562Z,99467.59
2022-11-05T01:05:20.578Z,99426.41
2022-11-05T01:07:47.209Z,99501.59
2022-11-05T01:10:13.966Z,99476.31
2022-11-05T01:12:40.705Z,99444.03
2022-11-05T01:15:12.185Z,99499.34
2022-11-05T01:17:38.889Z,99451.25
2022-11-05T01:20:08.304Z,99424.13
2022-11-05T01:22:34.827Z,99495.75
2022-11-05T01:25:04.972Z,99482.50
2022-11-05T01:27:31.522Z,99477.25
2022-11-05T01:29:58.013Z,99486.69
2022-11-05T01:32:26.596Z,99486.44
2022-11-05T01:34:53.130Z,99478.59
2022-11-05T01:37:22.084Z,99486.38
2022-11-05T01:39:48.967Z,99485.44
2022-11-05T01:42:19.742Z,99493.09
2022-11-05T01:44:49.924Z,99483.44
2022-11-05T01:47:31.917Z,99491.34
2022-11-05T01:49:59.276Z,99493.09
2022-11-05T01:52:28.271Z,99499.19
2022-11-05T01:54:54.776Z,99498.41
2022-11-05T01:57:21.695Z,99498.34
2022-11-05T01:59:51.355Z,99511.97
2022-11-05T02:02:18.057Z,99514.25
2022-11-05T02:04:53.971Z,99525.25
2022-11-05T02:07:20.606Z,99534.59
2022-11-05T02:09:58.778Z,99537.06
2022-11-05T02:12:25.355Z,99531.78
2022-11-05T02:14:51.883Z,99524.03
2022-11-05T02:17:20.558Z,99520.69
2022-11-05T02:19:50.179Z,99523.34
2022-11-05T02:22:19.945Z,99536.13
2022-11-05T02:24:58.849Z,99533.03
2022-11-05T02:27:25.376Z,99528.53
2022-11-05T02:29:51.968Z,99524.84
2022-11-05T02:32:21.442Z,99530.78
2022-11-05T02:34:57.117Z,99529.13
2022-11-05T02:37:35.766Z,99534.31
2022-11-05T02:40:22.606Z,99541.94
2022-11-05T02:42:55.386Z,99536.59
2022-11-05T02:45:30.040Z,99531.41
2022-11-05T02:47:56.584Z,99533.81
2022-11-05T02:50:29.354Z,99532.91
2022-11-05T02:52:58.385Z,99535.50
2022-11-05T02:55:24.871Z,99542.22
2022-11-05T02:57:53.599Z,99541.97
2022-11-05T03:00:39.246Z,99549.66
2022-11-05T03:03:06.488Z,99552.16
2022-11-05T03:05:35.902Z,99555.66
2022-11-05T03:08:08.113Z,99543.59
2022-11-05T03:10:34.723Z,99543.41
2022-11-05T03:13:22.595Z,99538.41
2022-11-05T03:15:57.456Z,99544.53
2022-11-05T03:18:29.800Z,99541.09
2022-11-05T03:20:56.626Z,99549.06
2022-11-05T03:23:36.516Z,99554.25
2022-11-05T03:26:07.673Z,99557.75
2022-11-05T03:28:35.842Z,99557.78
2022-11-05T03:31:02.305Z,99572.44
2022-11-05T03:33:29.092Z,99568.09
2022-11-05T03:35:56.685Z,99561.97
2022-11-05T03:38:25.675Z,99563.03
2022-11-05T03:40:53.121Z,99566.56
2022-11-05T03:43:22.264Z,99574.31
2022-11-05T03:45:52.271Z,99563.91
2022-11-05T03:48:18.856Z,99571.44
2022-11-05T03:50:51.003Z,99580.97
2022-11-05T03:53:18.903Z,99590.47
2022-11-05T03:55:59.417Z,99590.38
2022-11-05T03:58:28.301Z,99589.50
2022-11-05T04:00:54.810Z,99589.66
2022-11-05T04:03:21.387Z,99585.28
2022-11-05T04:06:07.920Z,99593.63
2022-11-05T04:08:53.182Z,99586.63
2022-11-05T04:11:38.451Z,99583.44
2022-11-05T04:14:04.969Z,99572.34
2022-11-05T04:16:52.577Z,99571.22
2022-11-05T04:19:39.154Z,99573.03
2022-11-05T04:22:24.381Z,99576.56
2022-11-05T04:24:50.901Z,99539.41
2022-11-05T04:27:17.397Z,99569.47
2022-11-05T04:30:02.319Z,99570.25
2022-11-05T04:32:28.859Z,99575.44
2022-11-05T04:34:55.432Z,99567.56
2022-11-05T04:37:21.986Z,99556.34
2022-11-05T04:39:48.503Z,99559.75
2022-11-05T04:42:15.143Z,99552.91
2022-11-05T04:44:41.639Z,99548.59
2022-11-05T04:47:11.592Z,99551.44
2022-11-05T04:49:38.345Z,99554.13
2022-11-05T04:52:04.990Z,99551.81
2022-11-05T04:54:31.586Z,99553.53
2022-11-05T04:56:58.908Z,99563.72
2022-11-05T04:59:26.107Z,99563.69
2022-11-05T05:01:56.476Z,99569.75
2022-11-05T05:04:26.287Z,99576.66
2022-11-05T05:06:57.828Z,99575.09
2022-11-05T05:09:25.045Z,99565.44
2022-11-05T05:11:57.060Z,99570.09
2022-11-05T05:14:23.862Z,99573.72
2022-11-05T05:16:53.010Z,99585.06
2022-11-05T05:19:23.989Z,99584.16
2022-11-05T05:21:52.883Z,99578.72
2022-11-05T05:24:20.357Z,99575.19
2022-11-05T05:26:51.014Z,99571.06
2022-11-05T05:29:18.327Z,99577.38
2022-11-05T05:31:45.528Z,99580.91
2022-11-05T05:34:12.833Z,99586.75
2022-11-05T05:36:40.104Z,99583.41
2022-11-05T05:39:11.374Z,99584.16
2022-11-05T05:41:38.412Z,99583.16
2022-11-05T05:44:06.047Z,99592.69
2022-11-05T05:46:33.005Z,99595.00
2022-11-05T05:49:05.523Z,99602.75
2022-11-05T05:51:36.419Z,99578.47
2022-11-05T05:54:03.409Z,99596.75
2022-11-05T05:56:30.037Z,99609.69
2022-11-05T05:58:56.642Z,99625.03
2022-11-05T06:01:26.295Z,99626.94
2022-11-05T06:03:52.885Z,99634.63
2022-11-05T06:06:22.961Z,99631.44
2022-11-05T06:08:49.601Z,99641.00
2022-11-05T06:11:18.464Z,99644.84
2022-11-05T06:13:45.062Z,99649.91
2022-11-05T06:16:14.344Z,99651.00
2022-11-05T06:18:40.961Z,99647.53
2022-11-05T06:21:08.841Z,99650.28
2022-11-05T06:23:35.878Z,99650.38
2022-11-05T06:26:08.891Z,99660.72
2022-11-05T06:28:35.492Z,99656.34
2022-11-05T06:31:02.181Z,99646.91
2022-11-05T06:33:28.839Z,99657.38
2022-11-05T06:35:57.849Z,99665.34
2022-11-05T06:38:24.369Z,99669.72
2022-11-05T06:40:50.949Z,99674.03
2022-11-05T06:43:17.475Z,99666.09
2022-11-05T06:45:43.997Z,99673.84
2022-11-05T06:48:10.693Z,99682.78
2022-11-05T06:50:37.200Z,99680.19
2022-11-05T06:53:04.048Z,99680.41
2022-11-05T06:55:31.326Z,99673.63
2022-11-05T06:57:57.894Z,99678.91
2022-11-05T07:00:27.235Z,99684.56
2022-11-05T07:02:55.928Z,99684.75
2022-11-05T07:05:24.940Z,99682.19
2022-11-05T07:07:51.512Z,99684.88
2022-11-05T07:10:18.371Z,99680.56
2022-11-05T07:12:44.929Z,99682.09
2022-11-05T07:15:11.916Z,99675.53
2022-11-05T07:17:43.446Z,99674.63
2022-11-05T07:20:10.815Z,99689.72
2022-11-05T07:22:37.861Z,99679.44
2022-11-05T07:25:05.237Z,99674.41
2022-11-05T07:27:31.803Z,99670.41
2022-11-05T07:29:58.377Z,99685.88
2022-11-05T07:32:24.998Z,99695.59
2022-11-05T07:34:51.506Z,99689.97
2022-11-05T07:37:18.098Z,99668.19
2022-11-05T07:39:45.007Z,99679.19
2022-11-05T07:42:12.654Z,99677.69
2022-11-05T07:44:39.821Z,99680.03
2022-11-05T07:47:08.817Z,99686.88
2022-11-05T07:49:38.044Z,99691.31
2022-11-05T07:52:06.921Z,99693.53
2022-11-05T07:54:36.107Z,99689.44
2022-11-05T07:57:02.686Z,99691.84
2022-11-05T07:59:29.275Z,99681.22
2022-11-05T08:01:55.929Z,99696.28
2022-11-05T08:04:22.641Z,99678.00
2022-11-05T08:06:49.134Z,99680.03
2022-11-05T08:09:15.676Z,99678.06
2022-11-05T08:11:42.223Z,99691.91
2022-11-05T08:14:08.753Z,99677.19
2022-11-05T08:16:37.754Z,99685.22
2022-11-05T08:19:07.118Z,99679.78
2022-11-05T08:21:33.583Z,99662.34
2022-11-05T08:24:02.536Z,99669.28
2022-11-05T08:26:29.051Z,99674.06
2022-11-05T08:28:57.955Z,99675.44
2022-11-05T08:31:27.404Z,99666.09
2022-11-05T08:33:59.795Z,99663.34
2022-11-05T08:36:31.266Z,99660.38
2022-11-05T08:38:57.777Z,99669.34
2022-11-05T08:41:24.422Z,99669.50
2022-11-05T08:43:51.409Z,99663.84
2022-11-05T08:46:20.397Z,99668.38
2022-11-05T08:48:46.924Z,99652.81
2022-11-05T08:51:16.366Z,99671.75
2022-11-05T08:53:42.907Z,99656.97
2022-11-05T08:56:14.542Z,99643.56
2022-11-05T08:58:44.191Z,99670.19
2022-11-05T09:01:11.847Z,99671.97
2022-11-05T09:03:38.407Z,99684.69
2022-11-05T09:06:05.172Z,99690.75
2022-11-05T09:08:34.550Z,99680.50
2022-11-05T09:11:01.087Z,99680.50
2022-11-05T09:13:30.371Z,99691.66
2022-11-05T09:15:59.965Z,99704.28
2022-11-05T09:18:28.827Z,99703.47
2022-11-05T09:21:00.649Z,99711.84
2022-11-05T09:23:29.636Z,99710.56
2022-11-05T09:25:57.358Z,99706.06
2022-11-05T09:28:26.412Z,99708.78
2022-11-05T09:30:56.094Z,99711.66
2022-11-05T09:33:23.540Z,99704.97
2022-11-05T09:35:52.661Z,99697.63
2022-11-05T09:38:21.512Z,99701.03
2022-11-05T09:41:02.383Z,99697.53
2022-11-05T09:43:33.996Z,99705.50
2022-11-05T09:46:05.080Z,99699.34
2022-11-05T09:48:35.669Z,99691.66
2022-11-05T09:51:02.750Z,99698.78
2022-11-05T09:53:31.833Z,99693.91
2022-11-05T09:56:02.938Z,99692.25
2022-11-05T09:58:45.575Z,99695.66
2022-11-05T10:01:16.649Z,99706.34
2022-11-05T10:03:46.839Z,99685.38
2022-11-05T10:06:17.817Z,99698.38
2022-11-05T10:08:47.696Z,99703.88
2022-11-05T10:11:18.272Z,99717.59
2022-11-05T10:13:50.841Z,99685.31
2022-11-05T10:16:22.652Z,99706.38
2022-11-05T10:18:52.629Z,99711.59
2022-11-05T10:21:37.832Z,99704.09
2022-11-05T10:24:15.706Z,99696.59
2022-11-05T10:26:45.244Z,99703.44
2022-11-05T10:29:14.646Z,99705.00
2022-11-05T10:31:41.244Z,99716.03
2022-11-05T10:34:08.117Z,99710.94
2022-11-05T10:36:38.741Z,99703.81
2022-11-05T10:39:11.635Z,99698.84
2022-11-05T10:41:44.633Z,99704.25
2022-11-05T10:44:16.071Z,99701.09
2022-11-05T10:46:54.269Z,99707.91
2022-11-05T10:49:36.192Z,99715.13
2022-11-05T10:52:03.545Z,99711.91
2022-11-05T10:54:31.095Z,99720.84
2022-11-05T10:56:59.959Z,99723.56
2022-11-05T10:59:27.663Z,99712.47
2022-11-05T11:02:02.986Z,99723.72
2022-11-05T11:04:33.608Z,99724.66
2022-11-05T11:07:05.305Z,99726.66
2022-11-05T11:09:36.544Z,99734.78
2022-11-05T11:12:08.287Z,99735.56
2022-11-05T11:14:35.341Z,99734.50
2022-11-05T11:17:39.635Z,99731.72
2022-11-05T11:20:22.044Z,99732.88
2022-11-05T11:23:00.876Z,99725.28
2022-11-05T11:25:50.091Z,99733.34
2022-11-05T11:28:30.296Z,99731.88
2022-11-05T11:31:10.777Z,99723.00
2022-11-05T11:33:37.660Z,99734.31
2022-11-05T11:36:04.409Z,99726.59
2022-11-05T11:38:36.279Z,99728.72
2022-11-05T11:41:27.188Z,99734.06
2022-11-05T11:43:54.523Z,99727.19
2022-11-05T11:46:21.105Z,99726.41
2022-11-05T11:48:50.220Z,99734.28
2022-11-05T11:51:25.885Z,99740.41
2022-11-05T11:54:00.249Z,99729.28
2022-11-05T11:56:27.071Z,99731.78
2022-11-05T11:58:57.550Z,99725.75
2022-11-05T12:01:24.119Z,99723.97
2022-11-05T12:03:54.397Z,99724.75
2022-11-05T12:06:20.958Z,99728.13
2022-11-05T12:08:59.520Z,99726.38
2022-11-05T12:11:48.146Z,99723.81
2022-11-05T12:14:33.302Z,99719.47
2022-11-05T12:16:59.840Z,99734.38
2022-11-05T12:19:26.436Z,99712.59
2022-11-05T12:21:53.570Z,99724.84
2022-11-05T12:24:25.710Z,99721.28
2022-11-05T12:27:11.108Z,99737.88
2022-11-05T12:29:41.641Z,99743.19
2022-11-05T12:32:24.634Z,99748.25
2022-11-05T12:35:21.497Z,99756.94
2022-11-05T12:38:09.013Z,99763.09
2022-11-05T12:40:51.552Z,99765.59
2022-11-05T12:43:31.259Z,99761.91
2022-11-05T12:46:14.357Z,99761.03
2022-11-05T12:48:59.747Z,99770.63
2022-11-05T12:51:45.432Z,99767.19
2022-11-05T12:54:33.390Z,99772.38
2022-11-05T12:57:09.937Z,99779.25
2022-11-05T12:59:40.415Z,99772.22
2022-11-05T13:02:14.436Z,99780.91
2022-11-05T13:04:45.875Z,99788.75
2022-11-05T13:07:14.000Z,99782.75
2022-11-05T13:09:43.367Z,99793.03
2022-11-05T13:12:17.377Z,99796.47
2022-11-05T13:14:43.836Z,99789.66
2022-11-05T13:17:10.351Z,99794.13
2022-11-05T13:19:38.101Z,99796.66
2022-11-05T13:22:11.005Z,99798.34
2022-11-05T13:24:44.010Z,99807.78
2022-11-05T13:27:25.091Z,99803.91
2022-11-05T13:30:02.197Z,99799.22
2022-11-05T13:32:30.607Z,99801.06
2022-11-05T13:35:01.297Z,99788.13
2022-11-05T13:37:47.800Z,99794.06
2022-11-05T13:40:21.030Z,99800.09
2022-11-05T13:42:47.530Z,99802.63
2022-11-05T13:45:52.709Z,99801.56
2022-11-05T13:48:24.482Z,99806.03
2022-11-05T13:51:02.365Z,99813.81
2022-11-05T13:53:53.856Z,99805.91
2022-11-05T13:56:52.325Z,99802.31
2022-11-05T13:59:40.606Z,99817.94
2022-11-05T14:02:33.533Z,99802.94
2022-11-05T14:05:02.320Z,99820.38
2022-11-05T14:07:32.984Z,99823.72
2022-11-05T14:10:05.709Z,99836.78
2022-11-05T14:12:36.006Z,99828.06
2022-11-05T14:15:04.403Z,99826.41
2022-11-05T14:17:34.840Z,99818.50
2022-11-05T14:20:01.660Z,99822.78
2022-11-05T14:22:34.798Z,99814.88
2022-11-05T14:25:02.211Z,99823.75
2022-11-05T14:27:28.705Z,99824.63
2022-11-05T14:30:00.323Z,99828.03
2022-11-05T14:32:44.375Z,99831.25
2022-11-05T14:35:19.476Z,99832.09
2022-11-05T14:37:54.766Z,99843.47
2022-11-05T14:40:21.330Z,99840.81
2022-11-05T14:42:53.862Z,99842.84
2022-11-05T14:45:25.835Z,99856.84
2022-11-05T14:47:54.138Z,99848.13
2022-11-05T14:50:26.978Z,99858.59
2022-11-05T14:52:54.712Z,99854.19
2022-11-05T14:55:29.282Z,99854.91
2022-11-05T14:57:55.859Z,99850.50
2022-11-05T15:00:36.536Z,99857.47
2022-11-05T15:03:05.368Z,99861.00
2022-11-05T15:05:38.573Z,99861.91
2022-11-05T15:08:27.591Z,99861.13
2022-11-05T15:10:57.392Z,99868.91
2022-11-05T15:13:29.026Z,99862.06
2022-11-05T15:15:57.982Z,99874.97
2022-11-05T15:18:27.527Z,99868.81
2022-11-05T15:20:54.940Z,99872.34
2022-11-05T15:23:21.935Z,99868.75
2022-11-05T15:25:53.428Z,99872.09
2022-11-05T15:28:25.730Z,99878.09
2022-11-05T15:30:56.312Z,99879.09
2022-11-05T15:33:23.259Z,99887.59
2022-11-05T15:35:49.810Z,99891.00
2022-11-05T15:38:24.943Z,99888.34
2022-11-05T15:41:04.085Z,99898.75
2022-11-05T15:43:30.699Z,99899.69
2022-11-05T15:46:04.861Z,99896.22
2022-11-05T15:48:31.974Z,99887.56
2022-11-05T15:51:00.852Z,99903.16
2022-11-05T15:53:56.023Z,99898.75
2022-11-05T15:56:39.243Z,99898.38
2022-11-05T15:59:06.731Z,99898.28
2022-11-05T16:01:33.990Z,99902.66
2022-11-05T16:04:11.196Z,99903.72
2022-11-05T16:06:40.419Z,99912.50
2022-11-05T16:09:07.203Z,99913.63
2022-11-05T16:11:36.219Z,99916.22
2022-11-05T16:14:16.987Z,99912.75
2022-11-05T16:16:46.134Z,99920.59
2022-11-05T16:19:40.240Z,99931.84
2022-11-05T16:22:07.456Z,99931.50
2022-11-05T16:24:34.066Z,99932.91
2022-11-05T16:27:05.402Z,99939.03
2022-11-05T16:29:36.269Z,99947.06
2022-11-05T16:32:30.583Z,99940.09
2022-11-05T16:35:03.105Z,99942.63
2022-11-05T16:37:39.750Z,99946.03
2022-11-05T16:40:26.567Z,99947.84
2022-11-05T16:42:55.454Z,99944.22
2022-11-05T16:45:26.269Z,99951.97
2022-11-05T16:47:54.986Z,99952.59
2022-11-05T16:50:25.540Z,99955.06
2022-11-05T16:52:56.560Z,99963.72
2022-11-05T16:55:23.103Z,99961.03
2022-11-05T16:57:54.964Z,99966.31
2022-11-05T17:00:24.679Z,99964.72
2022-11-05T17:02:52.727Z,99976.91
2022-11-05T17:05:21.828Z,99969.84
2022-11-05T17:07:50.770Z,99973.91
2022-11-05T17:10:17.473Z,99986.06
2022-11-05T17:12:44.241Z,99973.97
2022-11-05T17:15:17.897Z,99985.25
2022-11-05T17:17:44.710Z,99987.00
2022-11-05T17:20:15.795Z,99993.94
2022-11-05T17:22:44.750Z,99994.91
2022-11-05T17:25:14.081Z,99999.19
2022-11-05T17:27:42.986Z,99997.13
2022-11-05T17:30:12.090Z,100007.22
2022-11-05T17:32:38.698Z,100007.94
2022-11-05T17:35:08.021Z,100011.47
2022-11-05T17:37:39.118Z,100003.03
2022-11-05T17:40:06.427Z,100013.13
2022-11-05T17:42:35.531Z,100011.47
2022-11-05T17:45:02.042Z,100020.91
2022-11-05T17:47:28.578Z,100017.16
2022-11-05T17:49:55.244Z,100022.34
2022-11-05T17:52:21.997Z,100023.22
2022-11-05T17:54:48.599Z,100032.75
2022-11-05T17:57:15.291Z,100024.06
2022-11-05T17:59:42.169Z,100026.78
2022-11-05T18:02:12.271Z,100024.16
2022-11-05T18:04:41.789Z,100031.06
2022-11-05T18:07:08.694Z,100034.56
2022-11-05T18:09:35.311Z,100029.44
2022-11-05T18:12:04.255Z,100033.91
2022-11-05T18:14:34.082Z,100031.25
2022-11-05T18:17:05.153Z,100032.03
2022-11-05T18:19:32.379Z,100034.56
2022-11-05T18:22:01.242Z,100041.25
2022-11-05T18:24:27.776Z,100044.63
2022-11-05T18:26:59.534Z,100055.28
2022-11-05T18:29:26.111Z,100057.16
2022-11-05T18:31:53.030Z,100058.25
2022-11-05T18:34:22.013Z,100057.38
2022-11-05T18:36:56.373Z,100068.34
2022-11-05T18:39:23.335Z,100079.78
2022-11-05T18:41:49.913Z,100076.53
2022-11-05T18:44:19.655Z,100072.19
2022-11-05T18:47:01.642Z,100081.50
2022-11-05T18:49:28.933Z,100089.47
2022-11-05T18:52:18.406Z,100092.38
2022-11-05T18:54:45.021Z,100098.59
2022-11-05T18:57:11.589Z,100098.81
2022-11-05T18:59:50.474Z,100102.28
2022-11-05T19:02:19.594Z,100103.16
2022-11-05T19:05:13.787Z,100104.09
2022-11-05T19:07:36.218Z,100104.00
2022-11-05T19:10:02.810Z,100120.31
2022-11-05T19:12:29.410Z,100113.94
2022-11-05T19:15:01.892Z,100119.78
2022-11-05T19:17:33.821Z,100121.28
2022-11-05T19:20:00.523Z,100119.53
2022-11-05T19:22:27.139Z,100125.63
2022-11-05T19:24:56.100Z,100121.16
2022-11-05T19:27:25.385Z,100129.25
2022-11-05T19:29:52.176Z,100137.13
2022-11-05T19:32:21.319Z,100139.38
2022-11-05T19:34:47.867Z,100145.34
2022-11-05T19:37:14.423Z,100144.56
2022-11-05T19:39:41.219Z,100147.75
2022-11-05T19:42:07.855Z,100146.81
2022-11-05T19:44:37.777Z,100152.19
2022-11-05T19:47:15.223Z,100160.09
2022-11-05T19:49:41.757Z,100155.66
2022-11-05T19:52:08.294Z,100162.44
2022-11-05T19:54:37.507Z,100169.44
2022-11-05T19:57:04.140Z,100161.75
2022-11-05T19:59:32.979Z,100167.81
2022-11-05T20:01:59.717Z,100172.22
2022-11-05T20:04:28.853Z,100177.44
2022-11-05T20:06:55.379Z,100181.75
2022-11-05T20:09:24.321Z,100186.25
2022-11-05T20:11:54.260Z,100182.78
2022-11-05T20:14:23.556Z,100187.19
2022-11-05T20:16:50.074Z,100192.47
2022-11-05T20:19:19.466Z,100196.97
2022-11-05T20:21:46.119Z,100193.69
2022-11-05T20:24:16.137Z,100198.72
2022-11-05T20:26:45.261Z,100203.66
2022-11-05T20:29:13.105Z,100202.28
2022-11-05T20:31:41.714Z,100203.06
2022-11-05T20:34:08.947Z,100205.88
2022-11-05T20:36:35.573Z,100210.31
2022-11-05T20:39:02.974Z,100209.09
2022-11-05T20:41:32.014Z,100217.59
2022-11-05T20:44:01.357Z,100214.88
2022-11-05T20:46:27.866Z,100213.94
2022-11-05T20:48:57.381Z,100220.94
2022-11-05T20:51:26.927Z,100223.34
2022-11-05T20:53:57.676Z,100226.94
2022-11-05T20:56:25.770Z,100219.88
2022-11-05T20:58:52.636Z,100228.66
2022-11-05T21:01:21.986Z,100229.41
2022-11-05T21:03:49.400Z,100232.59
2022-11-05T21:06:15.926Z,100224.00
2022-11-05T21:08:42.854Z,100222.19
2022-11-05T21:11:10.156Z,100228.38
2022-11-05T21:13:36.677Z,100230.25
2022-11-05T21:16:04.643Z,100231.72
2022-11-05T21:18:34.038Z,100224.59
2022-11-05T21:21:04.060Z,100234.06
2022-11-05T21:23:32.923Z,100231.41
2022-11-05T21:26:02.761Z,100235.00
2022-11-05T21:28:29.333Z,100229.00
2022-11-05T21:30:59.847Z,100237.06
2022-11-05T21:33:29.304Z,100236.34
2022-11-05T21:35:55.873Z,100236.53
2022-11-05T21:40:49.978Z,100233.53
2022-11-05T21:43:16.753Z,100236.91
2022-11-05T21:45:44.268Z,100237.88
2022-11-05T21:48:11.341Z,100235.06
2022-11-05T21:50:58.706Z,100235.06
2022-11-05T21:53:43.838Z,100235.75
2022-11-05T21:56:39.342Z,100243.75
2022-11-05T21:59:24.550Z,100238.47
2022-11-05T22:01:51.321Z,100239.41
2022-11-05T22:04:18.001Z,100243.13
2022-11-05T22:06:49.727Z,100243.13
2022-11-05T22:09:18.805Z,100244.13
2022-11-05T22:11:45.345Z,100247.41
2022-11-05T22:14:16.187Z,100244.69
2022-11-05T22:16:43.191Z,100240.09
2022-11-05T22:19:12.939Z,100243.44
2022-11-05T22:21:39.469Z,100237.88
2022-11-05T22:24:06.123Z,100248.16
2022-11-05T22:26:32.738Z,100248.25
2022-11-05T22:28:59.528Z,100247.25
2022-11-05T22:31:26.007Z,100249.22
2022-11-05T22:33:55.033Z,100243.53
2022-11-05T22:36:21.530Z,100234.19
2022-11-05T22:38:50.397Z,100244.81
2022-11-05T22:41:20.272Z,100247.56
2022-11-05T22:43:46.854Z,100243.81
2022-11-05T22:46:17.510Z,100242.84
2022-11-05T22:48:47.044Z,100253.47
2022-11-05T22:51:14.641Z,100254.19
2022-11-05T22:53:43.903Z,100254.09
2022-11-05T22:56:14.916Z,100243.91
2022-11-05T22:58:43.816Z,100245.47
2022-11-05T23:01:13.955Z,100254.22
2022-11-05T23:03:43.465Z,100257.78
2022-11-05T23:06:31.881Z,100264.03
2022-11-05T23:09:21.509Z,100254.75
2022-11-05T23:11:50.345Z,100261.69
2022-11-05T23:14:16.860Z,100260.72
2022-11-05T23:17:02.052Z,100254.50
2022-11-05T23:19:47.356Z,100256.13
2022-11-05T23:22:34.070Z,100256.13
2022-11-05T23:25:00.601Z,100258.84
2022-11-05T23:27:31.434Z,100263.19
2022-11-05T23:30:00.826Z,100266.75
2022-11-05T23:32:32.549Z,100260.81
2022-11-05T23:35:01.406Z,100277.28
2022-11-05T23:37:47.808Z,100275.53
2022-11-05T23:40:17.745Z,100277.22
2022-11-05T23:43:02.869Z,100283.22
2022-11-05T23:45:47.769Z,100285.88
2022-11-05T23:48:42.841Z,100279.06
2022-11-05T23:51:09.988Z,100289.53
2022-11-05T23:53:37.396Z,100286.94
2022-11-05T23:56:05.018Z,100277.28
2022-11-05T23:58:31.819Z,100278.28
